Time;durP1;ratioP1;P1;durP2;ratioP2;P2;SDS_P1;SDS_P2;PMS_P1;PMS_P2;Temp;Humidity;BMP_temperature;BMP_pressure;BME280_temperature;BME280_humidity;BME280_pressure;Samples;Min_cycle;Max_cycle;Signal;HPM_P1;HPM_P2
2022/10/13 04:00:23;;;;;;;2.83;2.05;;;7.40;99.90;;;;;;6188117;22;20795;-69
2022/10/13 04:02:50;;;;;;;5.85;4.03;;;7.40;99.90;;;;;;6210967;23;20643;-68
2022/10/13 04:05:17;;;;;;;3.05;2.85;;;7.40;99.90;;;;;;6210694;23;20290;-68
2022/10/13 04:07:44;;;;;;;3.70;3.40;;;7.40;99.90;;;;;;6210760;23;20594;-69
2022/10/13 04:10:10;;;;;;;3.00;2.80;;;7.40;99.90;;;;;;6211301;23;20191;-68
2022/10/13 04:12:37;;;;;;;3.63;2.70;;;7.40;99.90;;;;;;6211219;23;20189;-69
2022/10/13 04:15:05;;;;;;;4.32;2.10;;;7.40;99.90;;;;;;6211915;23;20183;-68
2022/10/13 04:17:33;;;;;;;2.10;2.00;;;7.40;99.90;;;;;;6189848;22;1104601;-69
2022/10/13 04:19:59;;;;;;;4.35;3.22;;;7.40;99.90;;;;;;6242595;23;20190;-70
2022/10/13 04:22:26;;;;;;;3.40;3.05;;;7.40;99.90;;;;;;6241235;23;20636;-70
2022/10/13 04:24:52;;;;;;;3.67;2.55;;;7.40;99.90;;;;;;6242822;23;20179;-68
2022/10/13 04:27:22;;;;;;;3.75;3.45;;;7.40;99.90;;;;;;6242451;22;20196;-70
2022/10/13 04:29:49;;;;;;;5.03;2.88;;;7.40;99.90;;;;;;6242744;23;20186;-68
2022/10/13 04:32:15;;;;;;;3.67;2.67;;;7.50;99.90;;;;;;6243021;23;20183;-70
2022/10/13 04:34:43;;;;;;;2.97;2.85;;;7.50;99.90;;;;;;6242295;23;20182;-69
2022/10/13 04:37:10;;;;;;;3.60;3.33;;;7.50;99.90;;;;;;6243392;22;20207;-68
2022/10/13 04:39:37;;;;;;;4.05;3.58;;;7.50;99.90;;;;;;6243718;23;20190;-69
2022/10/13 04:42:04;;;;;;;4.40;3.45;;;7.50;99.90;;;;;;6243813;23;20652;-70
2022/10/13 04:44:30;;;;;;;3.10;2.90;;;7.50;99.90;;;;;;6243916;23;20285;-69
2022/10/13 04:46:59;;;;;;;3.85;3.40;;;7.50;99.90;;;;;;6244080;22;20253;-68
2022/10/13 04:49:26;;;;;;;3.95;2.97;;;7.50;99.90;;;;;;6244366;23;20241;-69
2022/10/13 04:51:54;;;;;;;2.05;1.73;;;7.50;99.90;;;;;;6244311;23;20212;-69
2022/10/13 04:54:20;;;;;;;3.78;3.47;;;7.50;99.90;;;;;;6243460;23;20187;-69
2022/10/13 04:56:47;;;;;;;3.63;3.33;;;7.50;99.90;;;;;;6244043;22;20199;-68
2022/10/13 04:59:14;;;;;;;2.50;2.40;;;7.60;99.90;;;;;;6244267;23;20193;-68
2022/10/13 05:01:41;;;;;;;3.10;3.00;;;7.60;99.90;;;;;;6244108;23;20185;-70
2022/10/13 05:04:09;;;;;;;3.22;3.03;;;7.60;99.90;;;;;;6243672;23;20179;-68
2022/10/13 05:06:39;;;;;;;3.60;3.30;;;7.60;99.90;;;;;;6243459;22;20199;-68
2022/10/13 05:09:07;;;;;;;8.68;3.80;;;7.60;99.90;;;;;;6243479;23;20274;-69
2022/10/13 05:11:34;;;;;;;2.70;2.63;;;7.60;99.90;;;;;;6243956;23;20474;-69
2022/10/13 05:14:01;;;;;;;5.28;2.67;;;7.60;99.90;;;;;;6243754;23;20182;-69
2022/10/13 05:16:29;;;;;;;3.00;2.75;;;7.60;99.90;;;;;;6243599;22;20509;-69
2022/10/13 05:18:56;;;;;;;4.07;3.88;;;7.60;99.90;;;;;;6244011;23;20213;-68
2022/10/13 05:21:25;;;;;;;4.60;3.25;;;7.60;99.90;;;;;;6243495;23;20186;-69
2022/10/13 05:23:54;;;;;;;4.55;4.15;;;7.60;99.90;;;;;;6242735;23;20179;-69
2022/10/13 05:26:27;;;;;;;4.55;4.15;;;7.70;99.90;;;;;;6243798;22;20206;-70
2022/10/13 05:28:54;;;;;;;4.78;3.55;;;7.70;99.90;;;;;;6244236;23;20266;-69
2022/10/13 05:31:22;;;;;;;3.80;3.08;;;7.60;99.90;;;;;;6244002;23;20514;-69
2022/10/13 05:33:51;;;;;;;2.97;2.75;;;7.60;99.90;;;;;;6244199;23;20186;-69
2022/10/13 05:36:20;;;;;;;6.50;3.17;;;7.60;99.90;;;;;;6243334;22;20285;-70
2022/10/13 05:38:50;;;;;;;4.15;3.85;;;7.60;99.90;;;;;;6243464;23;20197;-69
2022/10/13 05:41:17;;;;;;;10.93;3.58;;;7.60;99.90;;;;;;6244201;23;20206;-69
2022/10/13 05:43:45;;;;;;;5.70;3.67;;;7.60;99.90;;;;;;6243403;23;20182;-69
2022/10/13 05:46:12;;;;;;;3.97;3.30;;;7.60;99.90;;;;;;6244055;22;20529;-69
2022/10/13 05:48:38;;;;;;;4.53;3.65;;;7.60;99.90;;;;;;6243390;23;20178;-67
2022/10/13 05:51:09;;;;;;;15.25;3.03;;;7.70;99.90;;;;;;6242790;23;20183;-67
2022/10/13 05:53:39;;;;;;;7.28;3.63;;;7.70;99.90;;;;;;6243127;23;20175;-66
2022/10/13 05:56:11;;;;;;;4.00;3.65;;;7.70;99.90;;;;;;6243434;22;20240;-70
2022/10/13 05:58:42;;;;;;;4.85;3.17;;;7.70;99.90;;;;;;6243405;23;20194;-70
2022/10/13 06:01:14;;;;;;;4.93;3.50;;;7.70;99.90;;;;;;6243483;23;20606;-67
2022/10/13 06:03:41;;;;;;;4.82;2.88;;;7.70;99.90;;;;;;6243509;23;20167;-68
2022/10/13 06:06:09;;;;;;;3.35;3.00;;;7.70;99.90;;;;;;6243215;22;20275;-69
2022/10/13 06:08:36;;;;;;;4.22;3.00;;;7.80;99.90;;;;;;6242774;23;20178;-68
2022/10/13 06:11:03;;;;;;;4.22;3.70;;;7.80;99.90;;;;;;6243629;23;20190;-68
2022/10/13 06:13:30;;;;;;;3.60;3.35;;;7.80;99.90;;;;;;6243184;23;20190;-69
2022/10/13 06:15:57;;;;;;;9.52;3.40;;;7.80;99.90;;;;;;6243148;22;20214;-68
2022/10/13 06:18:25;;;;;;;4.97;4.47;;;7.90;99.90;;;;;;6243608;23;20278;-68
2022/10/13 06:20:52;;;;;;;3.60;3.10;;;7.90;99.90;;;;;;6243056;23;20189;-69
2022/10/13 06:23:18;;;;;;;5.88;5.03;;;8.00;99.90;;;;;;6242207;23;20190;-70
2022/10/13 06:25:47;;;;;;;5.22;2.80;;;8.00;99.90;;;;;;6243376;22;20202;-69
2022/10/13 06:28:14;;;;;;;4.18;3.78;;;8.10;99.90;;;;;;6243517;23;20203;-68
2022/10/13 06:30:41;;;;;;;4.20;3.80;;;8.10;99.90;;;;;;6243341;23;20190;-69
2022/10/13 06:33:08;;;;;;;5.50;3.65;;;8.20;99.90;;;;;;6242586;23;20183;-67
2022/10/13 06:35:36;;;;;;;4.18;3.55;;;8.10;99.90;;;;;;6242714;22;20183;-69
2022/10/13 06:38:03;;;;;;;10.38;5.90;;;8.20;99.90;;;;;;6242453;23;20214;-69
2022/10/13 06:40:30;;;;;;;5.03;4.63;;;8.30;99.90;;;;;;6243347;23;20182;-69
2022/10/13 06:42:57;;;;;;;5.13;3.35;;;8.30;99.90;;;;;;6242495;23;20205;-70
2022/10/13 06:45:24;;;;;;;4.45;4.10;;;8.40;99.90;;;;;;6242939;22;20641;-69
2022/10/13 06:47:52;;;;;;;5.82;4.65;;;8.40;99.90;;;;;;6242816;23;20191;-69
2022/10/13 06:50:19;;;;;;;11.68;4.32;;;8.50;99.90;;;;;;6242612;23;20190;-71
2022/10/13 06:52:47;;;;;;;8.18;4.57;;;8.50;99.90;;;;;;6242371;23;20191;-68
2022/10/13 06:55:14;;;;;;;4.18;3.22;;;8.60;99.90;;;;;;6243215;23;20185;-70
2022/10/13 06:57:41;;;;;;;6.70;5.28;;;8.70;99.90;;;;;;6243009;22;20207;-70
2022/10/13 07:00:09;;;;;;;8.65;3.78;;;8.80;99.90;;;;;;6242559;23;20214;-72
2022/10/13 07:02:35;;;;;;;8.85;3.35;;;8.80;99.90;;;;;;6242518;23;20654;-70
2022/10/13 07:05:02;;;;;;;5.38;4.38;;;8.90;99.90;;;;;;6242905;23;20190;-69
2022/10/13 07:07:29;;;;;;;4.32;3.97;;;9.00;99.90;;;;;;6241454;22;20207;-70
2022/10/13 07:09:57;;;;;;;3.45;2.63;;;9.10;99.90;;;;;;6243033;23;20187;-70
2022/10/13 07:12:23;;;;;;;5.25;3.25;;;9.10;99.90;;;;;;6242481;23;20184;-70
2022/10/13 07:14:50;;;;;;;7.32;4.15;;;9.20;99.90;;;;;;6242489;23;20184;-70
2022/10/13 07:17:17;;;;;;;6.80;3.25;;;9.20;99.90;;;;;;6242152;22;20212;-69
2022/10/13 07:19:47;;;;;;;4.13;3.83;;;9.20;99.90;;;;;;6242298;23;20655;-71
2022/10/13 07:22:13;;;;;;;5.00;4.60;;;9.30;99.90;;;;;;6242183;23;20186;-69
2022/10/13 07:24:40;;;;;;;4.10;3.35;;;9.30;99.90;;;;;;6242560;23;20185;-69
2022/10/13 07:27:09;;;;;;;4.85;4.45;;;9.40;99.90;;;;;;6242704;22;20209;-70
2022/10/13 07:29:35;;;;;;;5.28;4.00;;;9.40;99.90;;;;;;6242947;23;20181;-69
2022/10/13 07:32:02;;;;;;;3.42;3.15;;;9.50;99.90;;;;;;6242245;23;20187;-72
2022/10/13 07:34:29;;;;;;;3.92;3.63;;;9.60;99.90;;;;;;6242728;23;20188;-70
2022/10/13 07:36:56;;;;;;;4.32;3.42;;;9.70;99.90;;;;;;6242415;22;20200;-68
2022/10/13 07:39:23;;;;;;;7.35;3.92;;;9.70;99.90;;;;;;6242373;23;20186;-69
2022/10/13 07:41:49;;;;;;;4.40;3.78;;;9.80;99.90;;;;;;6243008;23;20178;-69
2022/10/13 07:44:17;;;;;;;4.55;4.15;;;9.90;99.90;;;;;;6242587;23;20188;-70
2022/10/13 07:46:44;;;;;;;4.18;3.88;;;10.00;99.90;;;;;;6242344;22;20692;-71
2022/10/13 07:49:11;;;;;;;7.03;4.05;;;10.10;99.90;;;;;;6242766;23;20571;-67
2022/10/13 07:51:38;;;;;;;3.90;3.60;;;10.10;99.90;;;;;;6242255;23;20180;-68
2022/10/13 07:54:04;;;;;;;4.90;4.50;;;10.20;99.90;;;;;;6249555;23;20528;-71
2022/10/13 07:56:31;;;;;;;4.55;4.05;;;10.30;99.90;;;;;;6245266;22;20226;-68
2022/10/13 07:58:58;;;;;;;4.35;4.05;;;10.40;99.90;;;;;;6243006;23;20202;-70
2022/10/13 08:01:26;;;;;;;3.05;2.75;;;10.40;99.90;;;;;;6242833;23;20228;-70
2022/10/13 08:03:55;;;;;;;4.07;3.80;;;10.50;99.90;;;;;;6242576;23;20189;-70
2022/10/13 08:06:21;;;;;;;4.78;3.80;;;10.60;99.90;;;;;;6242629;22;20208;-70
2022/10/13 08:08:48;;;;;;;4.60;4.38;;;10.60;99.90;;;;;;6242217;23;20245;-69
2022/10/13 08:11:19;;;;;;;2.92;2.75;;;10.80;99.90;;;;;;6243489;23;20178;-71
2022/10/13 08:13:47;;;;;;;14.55;4.28;;;10.80;99.90;;;;;;6244625;23;20469;-70
2022/10/13 08:16:14;;;;;;;4.57;3.45;;;10.90;99.90;;;;;;6244449;22;20257;-70
2022/10/13 08:18:42;;;;;;;8.65;3.72;;;10.90;99.90;;;;;;6244557;23;20248;-69
2022/10/13 08:21:12;;;;;;;8.70;3.45;;;11.00;99.90;;;;;;6245149;23;20179;-70
2022/10/13 08:23:39;;;;;;;4.20;3.80;;;11.00;99.90;;;;;;6244236;23;20167;-72
2022/10/13 08:26:12;;;;;;;3.28;3.17;;;11.10;99.90;;;;;;6244733;22;20664;-70
2022/10/13 08:28:39;;;;;;;3.42;3.22;;;11.10;99.90;;;;;;6244829;23;20163;-69
2022/10/13 08:31:05;;;;;;;7.13;3.85;;;11.30;99.90;;;;;;6244786;23;20513;-70
2022/10/13 08:33:32;;;;;;;3.50;3.27;;;11.40;99.90;;;;;;6244602;23;20190;-69
2022/10/13 08:36:00;;;;;;;3.50;3.07;;;11.50;99.90;;;;;;6244587;22;20442;-68
2022/10/13 08:38:27;;;;;;;4.20;3.90;;;11.60;99.90;;;;;;6246553;23;20538;-69
2022/10/13 08:40:54;;;;;;;5.20;3.70;;;11.70;99.90;;;;;;6244365;23;20180;-71
2022/10/13 08:43:23;;;;;;;4.90;4.43;;;11.80;99.90;;;;;;6243799;23;20429;-69
2022/10/13 08:45:50;;;;;;;8.40;2.63;;;11.90;99.90;;;;;;6244144;22;20439;-68
2022/10/13 08:48:20;;;;;;;3.83;2.53;;;12.00;99.90;;;;;;6244039;23;20426;-69
2022/10/13 08:50:51;;;;;;;4.07;3.63;;;12.00;99.90;;;;;;6243907;23;20741;-68
2022/10/13 08:53:27;;;;;;;9.23;5.00;;;12.10;99.90;;;;;;6243367;23;20428;-71
2022/10/13 08:55:57;;;;;;;5.00;4.50;;;12.30;99.90;;;;;;6244244;22;20447;-69
2022/10/13 08:58:29;;;;;;;4.63;3.73;;;12.30;99.90;;;;;;6243841;23;20441;-69
2022/10/13 09:01:06;;;;;;;4.70;4.30;;;12.40;99.90;;;;;;6244328;23;20742;-70
2022/10/13 09:03:43;;;;;;;3.90;3.70;;;12.50;99.90;;;;;;6255243;23;20409;-70
2022/10/13 09:06:14;;;;;;;4.17;3.87;;;12.60;99.90;;;;;;6245382;22;20449;-70
2022/10/13 09:08:45;;;;;;;2.60;2.40;;;12.80;99.90;;;;;;6243743;23;20403;-70
2022/10/13 09:11:13;;;;;;;2.87;2.77;;;12.90;99.90;;;;;;6244332;23;20417;-69
2022/10/13 09:13:40;;;;;;;6.00;4.40;;;13.00;99.90;;;;;;6243652;23;20427;-69
2022/10/13 09:16:07;;;;;;;4.73;3.50;;;13.10;99.90;;;;;;6243637;22;20455;-71
2022/10/13 09:18:34;;;;;;;4.23;2.93;;;13.20;99.90;;;;;;6244043;23;20825;-69
2022/10/13 09:21:25;;;;;;;4.60;4.30;;;13.30;99.90;;;;;;6243600;23;20486;-69
2022/10/13 09:24:04;;;;;;;5.80;3.97;;;13.30;99.90;;;;;;6219508;23;20749;-68
2022/10/13 09:26:38;;;;;;;3.10;2.90;;;13.40;99.90;;;;;;6244285;22;20446;-70
2022/10/13 09:29:09;;;;;;;3.30;3.00;;;13.40;99.90;;;;;;6244104;23;20458;-69
2022/10/13 09:31:37;;;;;;;3.20;3.00;;;13.40;99.90;;;;;;6243753;23;20951;-69
2022/10/13 09:34:14;;;;;;;3.63;2.73;;;13.30;99.90;;;;;;6243580;23;20472;-69
2022/10/13 09:36:56;;;;;;;4.00;3.80;;;13.30;99.90;;;;;;6243732;22;20443;-70
2022/10/13 09:39:25;;;;;;;3.67;3.47;;;13.30;99.90;;;;;;6242995;23;20431;-71
2022/10/13 09:41:52;;;;;;;3.07;2.87;;;13.40;99.90;;;;;;6244102;23;20423;-69
2022/10/13 09:44:28;;;;;;;2.70;2.50;;;13.50;99.90;;;;;;6243073;23;20964;-69
2022/10/13 09:46:57;;;;;;;3.80;3.60;;;13.50;99.90;;;;;;6253641;22;20499;-68
2022/10/13 09:49:36;;;;;;;2.93;2.73;;;13.60;99.90;;;;;;6243438;23;20903;-68
2022/10/13 09:52:04;;;;;;;4.03;3.73;;;13.60;99.90;;;;;;6242796;23;20908;-69
2022/10/13 09:54:43;;;;;;;3.70;2.17;;;13.60;99.90;;;;;;6242875;23;20908;-68
2022/10/13 09:57:28;;;;;;;3.50;3.13;;;13.70;99.90;;;;;;6243321;22;20446;-68
2022/10/13 10:00:10;;;;;;;3.27;2.97;;;13.80;99.90;;;;;;6243862;23;20757;-70
2022/10/13 10:02:42;;;;;;;4.70;4.30;;;13.80;99.90;;;;;;6243628;23;20430;-69
2022/10/13 10:05:22;;;;;;;2.90;2.80;;;13.80;99.90;;;;;;6243479;23;20419;-70
2022/10/13 10:07:49;;;;;;;3.57;2.80;;;14.00;99.90;;;;;;6243348;23;20423;-70
2022/10/13 10:10:28;;;;;;;2.93;2.73;;;14.10;99.90;;;;;;6243452;23;20726;-69
2022/10/13 10:12:54;;;;;;;3.33;3.13;;;14.20;99.90;;;;;;6242816;23;20411;-70
2022/10/13 10:15:27;;;;;;;4.13;3.73;;;14.30;99.90;;;;;;6243482;23;20430;-70
2022/10/13 10:17:59;;;;;;;5.97;3.73;;;14.40;99.90;;;;;;6243624;23;20873;-70
2022/10/13 10:20:44;;;;;;;4.20;3.43;;;14.50;99.90;;;;;;6243067;23;20478;-69
2022/10/13 10:23:16;;;;;;;4.00;3.57;;;14.50;99.90;;;;;;6242670;23;20411;-70
2022/10/13 10:25:48;;;;;;;2.57;2.37;;;14.60;99.90;;;;;;6243135;22;20413;-70
2022/10/13 10:28:39;;;;;;;2.77;2.57;;;14.70;99.90;;;;;;6243534;23;20680;-70
2022/10/13 10:31:16;;;;;;;3.60;3.30;;;14.80;99.90;;;;;;6243486;23;20504;-70
2022/10/13 10:33:55;;;;;;;3.70;3.50;;;14.80;99.90;;;;;;6242966;23;20419;-70
2022/10/13 10:36:27;;;;;;;4.60;4.00;;;14.80;99.90;;;;;;6242661;22;20948;-70
2022/10/13 10:38:59;;;;;;;3.20;3.00;;;14.80;99.90;;;;;;6242579;23;20432;-70
2022/10/13 10:41:40;;;;;;;3.40;3.20;;;14.90;99.90;;;;;;6243366;23;20404;-70
2022/10/13 10:44:10;;;;;;;6.40;4.10;;;14.90;99.90;;;;;;6243062;23;20404;-70
2022/10/13 10:46:42;;;;;;;3.67;2.90;;;14.90;99.90;;;;;;6243424;22;20444;-70
2022/10/13 10:49:16;;;;;;;2.30;2.20;;;14.90;99.90;;;;;;6242754;23;20865;-69
2022/10/13 10:51:44;;;;;;;2.90;2.80;;;14.80;99.90;;;;;;6243107;23;20408;-69
2022/10/13 10:54:23;;;;;;;3.70;3.60;;;14.70;99.90;;;;;;6241880;23;20471;-69
2022/10/13 10:56:54;;;;;;;3.73;3.30;;;14.80;99.90;;;;;;6243172;22;20451;-69
2022/10/13 10:59:28;;;;;;;2.33;2.23;;;14.80;99.90;;;;;;6242892;23;20432;-69
2022/10/13 11:02:11;;;;;;;4.00;3.70;;;14.80;99.90;;;;;;6242992;23;20411;-68
2022/10/13 11:04:42;;;;;;;2.73;2.53;;;14.90;99.90;;;;;;6242335;23;20413;-69
2022/10/13 11:07:34;;;;;;;2.30;2.20;;;15.00;99.90;;;;;;6242404;22;20451;-69
2022/10/13 11:10:20;;;;;;;5.30;2.33;;;15.10;99.90;;;;;;6242599;23;20496;-68
2022/10/13 11:13:25;;;;;;;2.50;2.30;;;15.10;99.90;;;;;;6242388;23;20935;-69
2022/10/13 11:15:54;;;;;;;3.10;2.90;;;15.20;99.90;;;;;;6238584;22;20797;-69
2022/10/13 11:19:04;;;;;;;3.90;3.03;;;15.30;99.90;;;;;;6242779;23;20431;-69
2022/10/13 11:22:12;;;;;;;2.80;2.60;;;15.40;99.90;;;;;;6242579;23;20411;-69
2022/10/13 11:24:50;;;;;;;3.87;2.60;;;15.50;99.90;;;;;;6241993;23;20403;-70
2022/10/13 11:27:26;;;;;;;4.30;3.53;;;15.60;99.90;;;;;;6242383;22;20457;-69
2022/10/13 11:29:55;;;;;;;2.50;2.40;;;15.70;99.90;;;;;;6242657;23;20396;-70
2022/10/13 11:32:54;;;;;;;2.80;2.60;;;15.70;99.90;;;;;;6242346;23;20507;-69
2022/10/13 11:35:26;;;;;;;2.70;2.50;;;15.80;99.90;;;;;;6242287;23;20403;-69
2022/10/13 11:38:17;;;;;;;2.50;2.30;;;15.80;99.90;;;;;;6241861;23;20891;-69
2022/10/13 11:41:02;;;;;;;4.90;3.13;;;15.80;99.90;;;;;;6242244;23;20412;-69
2022/10/13 11:43:38;;;;;;;3.70;3.37;;;15.80;99.90;;;;;;6242599;23;20413;-69
2022/10/13 11:46:33;;;;;;;6.83;2.90;;;15.80;99.90;;;;;;6243874;22;20457;-69
2022/10/13 11:49:24;;;;;;;3.33;3.13;;;15.90;99.90;;;;;;6244948;23;20797;-69
2022/10/13 11:52:11;;;;;;;2.60;2.50;;;16.00;99.90;;;;;;6244588;23;20406;-69
2022/10/13 11:54:47;;;;;;;8.10;3.67;;;16.10;99.90;;;;;;6244141;23;20500;-69
2022/10/13 11:57:21;;;;;;;2.83;2.63;;;16.10;99.90;;;;;;6245011;22;20444;-70
2022/10/13 11:59:50;;;;;;;2.83;2.70;;;16.10;99.90;;;;;;6245369;23;20445;-70
2022/10/13 12:02:18;;;;;;;5.13;3.50;;;16.10;99.90;;;;;;6244994;23;20539;-69
2022/10/13 12:05:00;;;;;;;3.40;2.43;;;16.10;99.90;;;;;;6244619;23;20420;-69
2022/10/13 12:07:32;;;;;;;3.20;3.00;;;16.20;99.90;;;;;;6244509;22;20514;-70
2022/10/13 12:10:00;;;;;;;2.43;2.33;;;16.30;99.90;;;;;;6245790;23;20402;-70
2022/10/13 12:12:27;;;;;;;3.30;3.10;;;16.40;99.90;;;;;;6244466;23;20422;-70
2022/10/13 12:14:56;;;;;;;2.13;2.03;;;16.50;99.90;;;;;;6244498;23;20427;-69
2022/10/13 12:17:28;;;;;;;2.60;2.50;;;16.50;99.90;;;;;;6244433;22;20541;-69
2022/10/13 12:19:57;;;;;;;3.77;3.67;;;16.60;99.90;;;;;;6244258;23;20941;-69
2022/10/13 12:22:24;;;;;;;6.43;2.87;;;16.70;99.90;;;;;;6243885;23;20422;-70
2022/10/13 12:24:59;;;;;;;1.90;1.90;;;16.80;99.90;;;;;;6245049;23;20423;-69
2022/10/13 12:27:27;;;;;;;3.83;2.10;;;16.90;99.90;;;;;;6244498;22;20741;-70
2022/10/13 12:29:54;;;;;;;2.23;2.13;;;16.90;99.90;;;;;;6244152;23;20417;-70
2022/10/13 12:32:23;;;;;;;1.70;1.70;;;17.00;99.90;;;;;;6243820;23;20448;-69
2022/10/13 12:34:49;;;;;;;1.60;1.60;;;17.00;99.90;;;;;;6244255;23;20421;-70
2022/10/13 12:37:26;;;;;;;3.00;2.90;;;17.10;99.90;;;;;;6243818;22;20546;-70
2022/10/13 12:39:55;;;;;;;3.63;2.50;;;17.20;99.90;;;;;;6243991;23;20959;-70
2022/10/13 12:42:30;;;;;;;2.57;2.37;;;17.40;99.90;;;;;;6243787;23;20446;-70
2022/10/13 12:44:58;;;;;;;2.00;1.90;;;17.50;99.90;;;;;;6244262;23;20407;-69
2022/10/13 12:47:40;;;;;;;2.53;2.00;;;17.50;99.90;;;;;;6244054;22;20443;-68
2022/10/13 12:50:34;;;;;;;2.47;2.37;;;17.60;99.90;;;;;;6244672;23;20403;-69
2022/10/13 12:53:15;;;;;;;2.03;2.03;;;17.50;99.90;;;;;;6242897;23;20953;-70
2022/10/13 12:55:51;;;;;;;10.67;2.90;;;17.40;99.90;;;;;;6243725;22;20447;-69
2022/10/13 12:58:24;;;;;;;2.93;2.33;;;17.40;99.90;;;;;;6244284;23;20894;-69
2022/10/13 13:01:04;;;;;;;2.57;2.43;;;17.50;99.90;;;;;;6244289;23;20530;-70
2022/10/13 13:03:31;;;;;;;2.10;2.00;;;17.50;99.90;;;;;;6243969;23;20409;-70
2022/10/13 13:06:10;;;;;;;2.50;2.40;;;17.40;99.90;;;;;;6243545;22;21132;-69
2022/10/13 13:08:38;;;;;;;6.33;2.77;;;17.30;99.90;;;;;;6243728;23;20422;-70
2022/10/13 13:11:07;;;;;;;2.30;2.10;;;17.10;99.90;;;;;;6244178;23;20421;-70
2022/10/13 13:13:34;;;;;;;3.33;3.03;;;17.10;99.90;;;;;;6244149;23;20713;-70
2022/10/13 13:16:14;;;;;;;2.30;2.13;;;17.10;99.90;;;;;;6243519;22;20453;-70
2022/10/13 13:18:42;;;;;;;2.40;2.30;;;17.10;99.90;;;;;;6243900;23;20474;-69
2022/10/13 13:21:11;;;;;;;7.60;2.43;;;17.10;99.90;;;;;;6243791;23;20422;-70
2022/10/13 13:23:39;;;;;;;9.43;2.30;;;17.10;99.90;;;;;;6242953;23;20426;-69
2022/10/13 13:26:12;;;;;;;1.97;1.97;;;17.10;99.90;;;;;;6244077;22;20553;-69
2022/10/13 13:28:43;;;;;;;2.50;2.40;;;17.10;99.90;;;;;;6243641;23;20720;-70
2022/10/13 13:31:11;;;;;;;2.20;2.20;;;17.10;99.90;;;;;;6243959;23;20475;-69
2022/10/13 13:33:38;;;;;;;2.60;2.40;;;17.10;99.90;;;;;;6243395;23;20746;-70
2022/10/13 13:36:05;;;;;;;2.00;1.90;;;17.10;99.90;;;;;;6243182;22;20441;-69
2022/10/13 13:38:32;;;;;;;5.47;2.30;;;17.10;99.90;;;;;;6243208;23;20429;-68
2022/10/13 13:41:00;;;;;;;4.27;1.73;;;17.10;99.90;;;;;;6243648;23;20516;-66
2022/10/13 13:43:26;;;;;;;2.77;2.57;;;17.10;99.90;;;;;;6243173;23;20429;-66
2022/10/13 13:45:53;;;;;;;2.13;2.03;;;17.10;99.90;;;;;;6243600;22;20551;-68
2022/10/13 13:48:20;;;;;;;2.93;1.63;;;17.10;99.90;;;;;;6243670;23;20432;-66
2022/10/13 13:50:46;;;;;;;2.40;1.43;;;17.10;99.90;;;;;;6243138;23;20424;-67
2022/10/13 13:53:13;;;;;;;3.07;2.77;;;17.00;99.90;;;;;;6242714;23;20434;-69
2022/10/13 13:55:47;;;;;;;1.93;1.83;;;17.00;99.90;;;;;;6242995;22;20434;-66
2022/10/13 13:58:15;;;;;;;4.10;3.83;;;17.00;99.90;;;;;;6243566;23;20407;-68
2022/10/13 14:00:42;;;;;;;2.37;2.17;;;17.00;99.90;;;;;;6243446;23;20446;-67
2022/10/13 14:03:08;;;;;;;4.33;2.70;;;16.90;99.90;;;;;;6243345;23;20429;-68
2022/10/13 14:05:38;;;;;;;2.27;2.17;;;16.90;99.90;;;;;;6242513;22;20428;-67
2022/10/13 14:08:05;;;;;;;2.50;2.30;;;16.90;99.90;;;;;;6242709;23;20436;-68
2022/10/13 14:10:32;;;;;;;2.30;2.20;;;16.90;99.90;;;;;;6243139;23;20429;-68
2022/10/13 14:12:59;;;;;;;3.43;1.60;;;16.90;99.90;;;;;;6243106;23;20426;-68
2022/10/13 14:15:27;;;;;;;1.93;1.93;;;16.80;99.90;;;;;;6242969;22;20891;-68
2022/10/13 14:17:54;;;;;;;3.50;2.10;;;16.70;99.90;;;;;;6243131;23;20570;-67
2022/10/13 14:20:22;;;;;;;1.70;1.60;;;16.70;99.90;;;;;;6242458;23;20442;-68
2022/10/13 14:22:48;;;;;;;1.97;1.87;;;16.60;99.90;;;;;;6242743;23;20426;-68
2022/10/13 14:25:15;;;;;;;2.33;2.23;;;16.60;99.90;;;;;;6243103;23;20428;-66
2022/10/13 14:27:44;;;;;;;1.83;1.73;;;16.60;99.90;;;;;;6243346;22;20528;-66
2022/10/13 14:30:12;;;;;;;2.37;2.33;;;16.50;99.90;;;;;;6243266;23;20452;-67
2022/10/13 14:32:40;;;;;;;2.70;2.50;;;16.50;99.90;;;;;;6242721;23;20424;-68
2022/10/13 14:35:07;;;;;;;2.50;2.40;;;16.40;99.90;;;;;;6243016;23;20814;-68
2022/10/13 14:37:34;;;;;;;2.30;2.30;;;16.40;99.90;;;;;;6242453;22;20446;-69
2022/10/13 14:40:00;;;;;;;3.23;2.60;;;16.40;99.90;;;;;;6243562;23;20556;-70
2022/10/13 14:42:27;;;;;;;2.23;1.70;;;16.40;99.90;;;;;;6243046;23;20892;-69
2022/10/13 14:44:54;;;;;;;2.40;2.30;;;16.50;99.90;;;;;;6243163;23;20799;-69
2022/10/13 14:47:20;;;;;;;2.53;2.20;;;16.50;99.90;;;;;;6242823;22;20442;-70
2022/10/13 14:49:48;;;;;;;2.67;2.50;;;16.60;99.90;;;;;;6243510;23;20420;-70
2022/10/13 14:52:15;;;;;;;1.67;1.63;;;16.60;99.90;;;;;;6242262;23;20422;-70
2022/10/13 14:54:42;;;;;;;2.30;1.97;;;16.60;99.90;;;;;;6242843;23;20737;-70
2022/10/13 14:57:14;;;;;;;1.50;1.50;;;16.60;99.90;;;;;;6243501;22;20943;-70
2022/10/13 14:59:40;;;;;;;2.90;2.80;;;16.60;99.90;;;;;;6242823;23;20437;-65
2022/10/13 15:02:08;;;;;;;2.83;2.73;;;16.60;99.90;;;;;;6241938;23;20478;-65
2022/10/13 15:04:35;;;;;;;2.13;2.13;;;16.70;99.90;;;;;;6242645;23;20495;-65
2022/10/13 15:07:03;;;;;;;2.50;2.40;;;16.70;99.90;;;;;;6241948;22;20449;-65
2022/10/13 15:09:30;;;;;;;2.33;2.23;;;16.60;99.90;;;;;;6241646;23;20516;-65
2022/10/13 15:11:56;;;;;;;2.00;1.90;;;16.60;99.90;;;;;;6241997;23;20427;-64
2022/10/13 15:14:23;;;;;;;2.07;1.97;;;16.50;99.90;;;;;;6242009;23;21079;-65
2022/10/13 15:16:50;;;;;;;3.20;2.23;;;16.50;99.90;;;;;;6242312;22;20571;-64
2022/10/13 15:19:16;;;;;;;2.23;2.13;;;16.40;99.90;;;;;;6241100;23;20421;-65
2022/10/13 15:21:43;;;;;;;2.50;2.40;;;16.40;99.90;;;;;;6241810;23;20425;-66
2022/10/13 15:24:13;;;;;;;2.03;1.93;;;16.40;99.90;;;;;;6242095;23;20447;-65
2022/10/13 15:26:39;;;;;;;1.87;1.87;;;16.40;99.90;;;;;;6242858;22;20443;-66
2022/10/13 15:29:06;;;;;;;7.43;2.03;;;16.40;99.90;;;;;;6241686;23;20422;-64
2022/10/13 15:31:33;;;;;;;2.07;1.97;;;16.30;99.90;;;;;;6241187;23;20421;-64
2022/10/13 15:34:01;;;;;;;2.57;2.37;;;16.30;99.90;;;;;;6241530;23;20947;-67
2022/10/13 15:36:27;;;;;;;1.83;1.83;;;16.20;99.90;;;;;;6242398;22;20441;-65
2022/10/13 15:38:54;;;;;;;3.03;2.50;;;16.20;99.90;;;;;;6242089;23;20424;-63
2022/10/13 15:41:24;;;;;;;2.80;2.57;;;16.10;99.90;;;;;;6242120;23;20448;-68
2022/10/13 15:43:51;;;;;;;2.10;2.00;;;16.10;99.90;;;;;;6241573;23;20750;-68
2022/10/13 15:46:22;;;;;;;2.20;2.20;;;16.10;99.90;;;;;;6242370;22;20453;-68
2022/10/13 15:48:50;;;;;;;2.80;2.40;;;16.00;99.90;;;;;;6242631;23;20515;-70
2022/10/13 15:51:19;;;;;;;2.27;2.17;;;16.00;99.90;;;;;;6241739;23;20886;-69
2022/10/13 15:53:46;;;;;;;1.90;1.90;;;16.00;99.90;;;;;;6241433;23;20504;-70
2022/10/13 15:56:12;;;;;;;2.27;2.17;;;15.90;99.90;;;;;;6242884;22;20548;-68
2022/10/13 15:58:40;;;;;;;2.20;2.10;;;15.90;99.90;;;;;;6242903;23;20729;-70
2022/10/13 16:01:08;;;;;;;2.17;2.03;;;15.90;99.90;;;;;;6242442;23;20451;-69
2022/10/13 16:03:35;;;;;;;6.20;2.80;;;15.80;99.90;;;;;;6242213;23;20706;-69
2022/10/13 16:06:04;;;;;;;2.07;1.97;;;15.80;99.90;;;;;;6242055;22;20837;-70
2022/10/13 16:08:31;;;;;;;4.40;2.50;;;15.80;99.90;;;;;;6240964;23;20921;-69
2022/10/13 16:10:57;;;;;;;2.70;2.57;;;15.70;99.90;;;;;;6242315;23;20799;-69
2022/10/13 16:13:24;;;;;;;14.33;2.27;;;15.70;99.90;;;;;;6241211;23;20419;-69
2022/10/13 16:15:58;;;;;;;2.43;2.17;;;15.70;99.90;;;;;;6242202;22;20456;-69
2022/10/13 16:18:29;;;;;;;3.13;2.20;;;15.60;99.90;;;;;;6242774;23;20424;-69
2022/10/13 16:20:56;;;;;;;1.57;1.57;;;15.60;99.90;;;;;;6241883;23;20431;-69
2022/10/13 16:23:23;;;;;;;3.33;3.10;;;15.50;99.90;;;;;;6241598;23;20434;-69
2022/10/13 16:25:52;;;;;;;2.80;2.70;;;15.50;99.90;;;;;;6241980;22;20464;-69
2022/10/13 16:28:19;;;;;;;3.20;2.53;;;15.40;99.90;;;;;;6242052;23;20739;-69
2022/10/13 16:30:46;;;;;;;3.27;3.07;;;15.40;99.90;;;;;;6241593;23;20427;-69
2022/10/13 16:33:14;;;;;;;2.90;2.70;;;15.40;99.90;;;;;;6242104;23;20423;-69
2022/10/13 16:35:40;;;;;;;3.07;2.57;;;15.30;99.90;;;;;;6243397;22;20427;-69
2022/10/13 16:38:07;;;;;;;3.30;3.10;;;15.30;99.90;;;;;;6243718;23;20423;-68
2022/10/13 16:40:37;;;;;;;2.80;2.70;;;15.30;99.90;;;;;;6242382;23;20441;-69
2022/10/13 16:43:04;;;;;;;2.17;2.17;;;15.30;99.90;;;;;;6241908;23;20759;-69
2022/10/13 16:45:30;;;;;;;3.20;3.00;;;15.20;99.90;;;;;;6243548;22;20423;-69
2022/10/13 16:47:57;;;;;;;4.00;3.47;;;15.20;99.90;;;;;;6243012;23;20783;-69
2022/10/13 16:50:25;;;;;;;2.83;2.67;;;15.20;99.90;;;;;;6242277;23;20419;-69
2022/10/13 16:52:52;;;;;;;2.80;2.70;;;15.20;99.90;;;;;;6244089;23;20430;-69
2022/10/13 16:55:18;;;;;;;2.30;2.10;;;15.20;99.90;;;;;;6244831;23;20424;-70
2022/10/13 16:57:46;;;;;;;2.37;2.27;;;15.20;99.90;;;;;;6242960;22;20961;-70
2022/10/13 17:00:13;;;;;;;3.97;3.10;;;15.20;99.90;;;;;;6243469;23;20454;-70
2022/10/13 17:02:40;;;;;;;2.63;2.53;;;15.10;99.90;;;;;;6242494;23;20933;-69
2022/10/13 17:05:07;;;;;;;4.83;3.27;;;15.20;99.90;;;;;;6241990;23;20446;-70